»·PEaware :: WAT440 KSNA-KLAS

WAT440 :: KSNA-KLAS

FLIGHT INFORMATION

Flight Status: Arrived
Operator:
Walker Air Transport
More flights by this operator :: More flights under this callsign
Pilot: Anthony S. (1624)
Aircraft: BOEING 737-800
(B738)
More flights by this aircraft type
Origin: KSNA John Wayne-Orange Co
United States
Destination: KLAS Harry Reid Intl
United States
More flights between these airports :: More routes between these airports
Route: FINZZ3 MISEN KEPEC6
File this flight plan on PilotEdge
Remarks:
Altitude:
(Current/Filed)
27,000ft
Speed:
(Current/Filed)
457kts
Departed: 22-Dec-20 10:24 PM
Arrived: 22-Dec-20 11:12 PM
Distance/Time
Traveled:
197nm/0:48
Distance/Time
To Go:
Arrived

Flight Plot

Page will automatically refresh every two minutes.

Flight plan parsing failed; only flown route is shown


Map Options




Map Legend


Flown Route
Filed Route
Departure Airport
Arrival Airport
Navaid (VOR, NDB)
Fix

Horizontal Profiles

Position Reports

Time Latitude Longitude Heading Altitude Ground
Speed
22-Dec-20 22:05 33.676820 -117.863942 119 65ft 0kts
22-Dec-20 22:06 33.676820 -117.863942 119 65ft 0kts
22-Dec-20 22:07 33.676820 -117.863942 119 65ft 0kts
22-Dec-20 22:08 33.676820 -117.863942 119 65ft 0kts
22-Dec-20 22:09 33.676820 -117.863942 119 65ft 0kts
22-Dec-20 22:10 33.676820 -117.863942 119 65ft 0kts
22-Dec-20 22:11 33.676820 -117.863942 119 65ft 0kts
22-Dec-20 22:12 33.676820 -117.863942 119 65ft 0kts
22-Dec-20 22:13 33.676820 -117.863942 119 65ft 0kts
22-Dec-20 22:14 33.676820 -117.863942 119 65ft 0kts
22-Dec-20 22:15 33.676848 -117.864568 64 65ft 2kts
22-Dec-20 22:16 33.676414 -117.865011 29 65ft 2kts
22-Dec-20 22:17 33.676371 -117.865040 28 65ft 0kts
22-Dec-20 22:18 33.676371 -117.865040 28 65ft 0kts
22-Dec-20 22:19 33.676371 -117.865040 28 65ft 0kts
22-Dec-20 22:20 33.677401 -117.864369 27 65ft 17kts
22-Dec-20 22:21 33.680193 -117.862727 338 65ft 0kts
22-Dec-20 22:22 33.681369 -117.864709 297 65ft 9kts
22-Dec-20 22:23 33.679099 -117.866653 207 65ft 53kts
22-Dec-20 22:24 33.648048 -117.883075 194 259ft 168kts
22-Dec-20 22:25 33.571649 -117.920650 201 396ft 390kts
22-Dec-20 22:26 33.506070 -117.993034 256 4952ft 315kts
22-Dec-20 22:27 33.537779 -118.077691 317 8344ft 264kts
22-Dec-20 22:28 33.602473 -118.113245 359 11794ft 281kts
22-Dec-20 22:29 33.677859 -118.075005 17 14739ft 305kts
22-Dec-20 22:30 33.756482 -118.032067 16 17404ft 320kts
22-Dec-20 22:31 33.838306 -117.984680 16 19782ft 335kts
22-Dec-20 22:32 33.921815 -117.928286 25 22001ft 358kts
22-Dec-20 22:33 34.003576 -117.855545 26 23915ft 374kts
22-Dec-20 22:34 34.085891 -117.773646 36 25605ft 401kts
22-Dec-20 22:35 34.160341 -117.670461 40 27152ft 417kts
22-Dec-20 22:37 34.232905 -117.564052 40 27158ft 410kts
22-Dec-20 22:38 34.304823 -117.457412 41 27164ft 413kts
22-Dec-20 22:39 34.380738 -117.344027 42 27164ft 452kts
22-Dec-20 22:40 34.462317 -117.221894 42 27158ft 481kts
22-Dec-20 22:41 34.548195 -117.092834 43 27122ft 498kts
22-Dec-20 22:42 34.636021 -116.964554 42 27118ft 491kts
22-Dec-20 22:43 34.723473 -116.836961 42 27118ft 493kts
22-Dec-20 22:44 34.810557 -116.709408 42 27113ft 479kts
22-Dec-20 22:45 34.901726 -116.600251 30 27119ft 456kts
22-Dec-20 22:46 34.998084 -116.505704 31 25526ft 437kts
22-Dec-20 22:47 35.091199 -116.425673 7 24512ft 369kts
22-Dec-20 22:48 35.186358 -116.405503 1 24126ft 344kts
22-Dec-20 22:49 35.281073 -116.387628 1 24118ft 343kts
22-Dec-20 22:50 35.353395 -116.312503 75 24105ft 393kts
22-Dec-20 22:51 35.351158 -116.179243 91 22744ft 387kts
22-Dec-20 22:52 35.385597 -116.062245 47 20657ft 380kts
22-Dec-20 22:52 35.443597 -115.979901 44 18815ft 380kts
22-Dec-20 22:53 35.513825 -115.886687 42 16956ft 357kts
22-Dec-20 22:55 35.588168 -115.791716 42 15152ft 310kts
22-Dec-20 22:56 35.647923 -115.715637 43 13689ft 312kts
22-Dec-20 22:56 35.697606 -115.651995 44 13005ft 304kts
22-Dec-20 22:58 35.776279 -115.580296 14 12999ft 302kts
22-Dec-20 22:58 35.844864 -115.570480 0 12999ft 299kts
22-Dec-20 22:59 35.927745 -115.565193 9 12977ft 301kts
22-Dec-20 23:00 35.976212 -115.485403 71 12895ft 311kts
22-Dec-20 23:01 36.001906 -115.383389 71 12781ft 309kts
22-Dec-20 23:02 36.023056 -115.281331 88 11136ft 311kts
22-Dec-20 23:03 36.016783 -115.175442 94 8641ft 294kts
22-Dec-20 23:04 36.010693 -115.086777 92 7391ft 243kts
22-Dec-20 23:05 36.005511 -115.004653 93 5368ft 238kts
22-Dec-20 23:06 36.029135 -114.945174 7 4220ft 188kts
22-Dec-20 23:07 36.075687 -114.960920 298 4202ft 195kts
22-Dec-20 23:08 36.072742 -115.020845 274 3708ft 146kts
22-Dec-20 23:09 36.073305 -115.070861 273 2898ft 144kts
22-Dec-20 23:10 36.073624 -115.120493 273 2157ft 142kts
22-Dec-20 23:11 36.073754 -115.147749 285 2112ft 33kts
22-Dec-20 23:12 36.077540 -115.152613 335 2124ft 3kts
22-Dec-20 23:13 36.078713 -115.149878 94 2111ft 34kts
22-Dec-20 23:14 36.080804 -115.148404 67 2101ft 6kts
22-Dec-20 23:15 36.080991 -115.147759 66 2098ft 0kts
22-Dec-20 23:16 36.080991 -115.147759 66 2098ft 0kts
22-Dec-20 23:17 36.080991 -115.147759 66 2098ft 0kts
22-Dec-20 23:18 36.080991 -115.147759 66 2098ft 0kts
22-Dec-20 23:19 36.080991 -115.147759 66 2098ft 0kts
22-Dec-20 23:20 36.080991 -115.147759 66 2098ft 0kts
22-Dec-20 23:21 36.080991 -115.147759 66 2098ft 0kts
22-Dec-20 23:22 36.080991 -115.147759 66 2098ft 0kts
22-Dec-20 23:23 36.080991 -115.147759 66 2098ft 0kts
22-Dec-20 23:24 36.080991 -115.147759 66 2098ft 0kts
22-Dec-20 23:25 36.080991 -115.147759 66 2098ft 0kts

Navigation Log

Ident Type
Flight plan parsing failed, navigation log unavailable